createdAt,value
2017-05-29T00:00:07.469Z,21.88
2017-05-29T00:02:36.312Z,20.40
2017-05-29T00:05:05.139Z,20.26
2017-05-29T00:07:33.972Z,19.84
2017-05-29T00:10:02.803Z,18.10
2017-05-29T00:12:31.616Z,20.58
2017-05-29T00:15:00.483Z,20.42
2017-05-29T00:17:29.299Z,22.66
2017-05-29T00:19:58.117Z,23.34
2017-05-29T00:22:26.939Z,21.88
2017-05-29T00:24:55.848Z,21.96
2017-05-29T00:27:24.657Z,22.80
2017-05-29T00:29:53.486Z,22.82
2017-05-29T00:32:22.304Z,21.96
2017-05-29T00:34:51.113Z,21.96
2017-05-29T00:37:19.951Z,20.32
2017-05-29T00:39:50.321Z,18.54
2017-05-29T00:42:19.150Z,19.12
2017-05-29T00:44:47.967Z,21.62
2017-05-29T00:47:16.806Z,20.52
2017-05-29T00:49:45.635Z,21.04
2017-05-29T00:52:14.458Z,23.24
2017-05-29T00:54:43.283Z,24.62
2017-05-29T00:57:12.134Z,24.50
2017-05-29T00:59:40.936Z,24.92
2017-05-29T01:02:09.791Z,25.66
2017-05-29T01:04:38.631Z,26.24
2017-05-29T01:07:07.419Z,25.98
2017-05-29T01:09:36.259Z,25.76
2017-05-29T01:12:05.075Z,26.82
2017-05-29T01:14:33.924Z,24.98
2017-05-29T01:17:02.748Z,26.56
2017-05-29T01:19:31.585Z,25.92
2017-05-29T01:22:00.404Z,24.90
2017-05-29T01:24:29.250Z,24.74
2017-05-29T01:26:58.064Z,24.06
2017-05-29T01:29:26.916Z,22.22
2017-05-29T01:31:55.757Z,22.80
2017-05-29T01:34:24.572Z,24.74
2017-05-29T01:36:53.404Z,23.70
2017-05-29T01:39:22.220Z,22.10
2017-05-29T01:41:51.047Z,23.70
2017-05-29T01:44:19.895Z,23.64
2017-05-29T01:46:48.701Z,25.78
2017-05-29T01:49:17.539Z,19.90
2017-05-29T01:51:46.355Z,22.36
2017-05-29T01:54:15.194Z,24.90
2017-05-29T01:56:44.027Z,25.04
2017-05-29T01:59:12.840Z,23.34
2017-05-29T02:01:41.682Z,22.04
2017-05-29T02:04:10.504Z,23.62
2017-05-29T02:06:39.310Z,22.96
2017-05-29T02:09:08.147Z,21.60
2017-05-29T02:11:37.015Z,23.06
2017-05-29T02:14:05.831Z,26.30
2017-05-29T02:16:34.662Z,23.54
2017-05-29T02:19:03.479Z,24.20
2017-05-29T02:21:32.292Z,27.20
2017-05-29T02:24:01.129Z,25.88
2017-05-29T02:26:29.948Z,26.92
2017-05-29T02:28:58.767Z,28.10
2017-05-29T02:31:27.595Z,22.86
2017-05-29T02:33:56.412Z,25.06
2017-05-29T02:36:25.222Z,26.98
2017-05-29T02:38:54.060Z,24.54
2017-05-29T02:41:22.907Z,26.64
2017-05-29T02:43:51.712Z,26.04
2017-05-29T02:46:20.535Z,25.98
2017-05-29T02:48:49.365Z,28.34
2017-05-29T02:51:18.223Z,28.46
2017-05-29T02:53:47.057Z,26.08
2017-05-29T02:56:15.887Z,31.08
2017-05-29T02:58:44.742Z,31.06
2017-05-29T03:01:13.556Z,36.08
2017-05-29T03:03:42.375Z,35.90
2017-05-29T03:06:11.234Z,33.36
2017-05-29T03:08:40.052Z,32.92
2017-05-29T03:11:08.870Z,34.66
2017-05-29T03:13:37.695Z,31.36
2017-05-29T03:16:06.515Z,28.14
2017-05-29T03:18:36.070Z,31.42
2017-05-29T03:21:04.904Z,34.16
2017-05-29T03:23:33.734Z,37.48
2017-05-29T03:26:02.559Z,23.06
2017-05-29T03:28:31.399Z,24.74
2017-05-29T03:31:00.230Z,27.68
2017-05-29T03:33:29.052Z,26.84
2017-05-29T03:35:57.883Z,33.10
2017-05-29T03:38:26.719Z,26.92
2017-05-29T03:40:55.579Z,25.28
2017-05-29T03:43:24.481Z,24.64
2017-05-29T03:45:53.284Z,25.62
2017-05-29T03:48:22.110Z,24.98
2017-05-29T03:50:50.945Z,30.86
2017-05-29T03:53:19.780Z,28.24
2017-05-29T03:55:48.575Z,31.94
2017-05-29T03:58:17.408Z,32.72
2017-05-29T04:00:46.215Z,36.86
2017-05-29T04:03:15.164Z,38.16
2017-05-29T04:05:43.976Z,38.24
2017-05-29T04:08:12.796Z,37.22
2017-05-29T04:10:41.632Z,39.66
2017-05-29T04:13:10.447Z,38.14
2017-05-29T04:15:39.264Z,39.32
2017-05-29T04:18:08.105Z,39.26
2017-05-29T04:20:36.934Z,41.62
2017-05-29T04:23:05.767Z,40.90
2017-05-29T04:25:34.603Z,41.64
2017-05-29T04:28:03.415Z,43.18
2017-05-29T04:30:32.260Z,35.72
2017-05-29T04:33:01.067Z,42.56
2017-05-29T04:35:29.896Z,41.62
2017-05-29T04:37:58.737Z,41.74
2017-05-29T04:40:27.551Z,43.20
2017-05-29T04:42:56.982Z,40.06
2017-05-29T04:45:25.872Z,39.26
2017-05-29T04:47:54.687Z,37.88
2017-05-29T04:50:23.503Z,38.92
2017-05-29T04:52:52.343Z,37.20
2017-05-29T04:55:21.155Z,37.86
2017-05-29T04:57:49.996Z,34.94
2017-05-29T05:00:18.802Z,32.56
2017-05-29T05:02:47.634Z,32.04
2017-05-29T05:05:16.460Z,32.78
2017-05-29T05:07:45.287Z,32.56
2017-05-29T05:10:14.111Z,31.76
2017-05-29T05:12:42.946Z,30.96
2017-05-29T05:15:12.372Z,30.96
2017-05-29T05:17:41.203Z,29.46
2017-05-29T05:20:10.030Z,29.92
2017-05-29T05:22:38.844Z,29.18
2017-05-29T05:25:07.684Z,29.80
2017-05-29T05:27:36.521Z,30.22
2017-05-29T05:30:05.337Z,29.52
2017-05-29T05:32:34.168Z,27.92
2017-05-29T05:35:02.979Z,26.24
2017-05-29T05:37:31.831Z,29.00
2017-05-29T05:40:00.638Z,27.34
2017-05-29T05:42:29.452Z,30.30
2017-05-29T05:44:58.295Z,34.48
2017-05-29T05:47:27.107Z,35.62
2017-05-29T05:49:57.104Z,36.72
2017-05-29T05:52:25.968Z,35.54
2017-05-29T05:54:54.805Z,32.22
2017-05-29T05:57:23.618Z,33.50
2017-05-29T05:59:52.459Z,32.00
2017-05-29T06:02:21.272Z,34.06
2017-05-29T06:04:50.083Z,33.40
2017-05-29T06:07:18.924Z,33.24
2017-05-29T06:09:47.737Z,30.30
2017-05-29T06:12:16.602Z,32.92
2017-05-29T06:14:45.416Z,32.62
2017-05-29T06:17:14.230Z,28.54
2017-05-29T06:19:43.042Z,31.78
2017-05-29T06:22:11.907Z,30.14
2017-05-29T06:24:40.707Z,28.62
2017-05-29T06:27:09.543Z,27.36
2017-05-29T06:29:38.379Z,29.24
2017-05-29T06:32:07.194Z,28.38
2017-05-29T06:34:36.466Z,33.58
2017-05-29T06:37:05.287Z,33.82
2017-05-29T06:39:34.100Z,33.96
2017-05-29T06:42:02.934Z,31.94
2017-05-29T06:44:31.764Z,34.38
2017-05-29T06:47:00.589Z,35.48
2017-05-29T06:49:29.419Z,33.48
2017-05-29T06:51:58.244Z,31.24
2017-05-29T06:54:27.064Z,39.50
2017-05-29T06:56:55.894Z,34.50
2017-05-29T06:59:24.723Z,36.30
2017-05-29T07:01:53.547Z,31.84
2017-05-29T07:04:21.632Z,30.54
2017-05-29T07:06:50.430Z,32.04
2017-05-29T07:09:19.247Z,34.26
2017-05-29T07:11:48.084Z,30.30
2017-05-29T07:14:16.968Z,27.94
2017-05-29T07:16:45.800Z,28.50
2017-05-29T07:19:14.607Z,27.18
2017-05-29T07:21:43.435Z,29.90
2017-05-29T07:24:12.280Z,29.90
2017-05-29T07:26:41.090Z,31.02
2017-05-29T07:29:09.914Z,26.26
2017-05-29T07:31:38.747Z,24.54
2017-05-29T07:34:07.563Z,27.14
2017-05-29T07:36:36.440Z,25.62
2017-05-29T07:39:05.258Z,26.80
2017-05-29T07:41:34.070Z,24.06
2017-05-29T07:44:02.895Z,20.84
2017-05-29T07:46:31.751Z,23.42
2017-05-29T07:49:00.568Z,22.92
2017-05-29T07:51:30.463Z,24.64
2017-05-29T07:53:59.275Z,23.02
2017-05-29T07:56:28.142Z,24.92
2017-05-29T07:58:56.983Z,26.02
2017-05-29T08:01:25.786Z,23.28
2017-05-29T08:03:54.624Z,24.72
2017-05-29T08:06:23.452Z,23.42
2017-05-29T08:08:53.096Z,22.28
2017-05-29T08:11:21.935Z,21.78
2017-05-29T08:13:50.758Z,20.72
2017-05-29T08:16:19.580Z,22.30
2017-05-29T08:18:48.413Z,20.74
2017-05-29T08:21:17.229Z,20.48
2017-05-29T08:23:46.054Z,20.48
2017-05-29T08:26:14.879Z,20.88
2017-05-29T08:28:43.695Z,17.86
2017-05-29T08:31:12.526Z,19.60
2017-05-29T08:33:41.349Z,17.08
2017-05-29T08:36:10.187Z,18.22
2017-05-29T08:38:39.011Z,20.48
2017-05-29T08:41:07.827Z,22.64
2017-05-29T08:43:36.655Z,18.74
2017-05-29T08:46:05.487Z,17.36
2017-05-29T08:48:34.320Z,17.06
2017-05-29T08:51:03.122Z,13.36
2017-05-29T08:53:31.958Z,14.90
2017-05-29T08:56:00.775Z,14.04
2017-05-29T08:58:29.615Z,14.26
2017-05-29T09:00:58.427Z,14.76
2017-05-29T09:03:27.259Z,16.12
2017-05-29T09:05:56.099Z,15.72
2017-05-29T09:08:24.912Z,13.48
2017-05-29T09:10:53.723Z,11.30
2017-05-29T09:13:22.567Z,12.62
2017-05-29T09:15:51.402Z,13.98
2017-05-29T09:18:20.214Z,12.48
2017-05-29T09:20:49.044Z,11.40
2017-05-29T09:23:17.863Z,14.02
2017-05-29T09:25:46.697Z,12.02
2017-05-29T09:28:15.506Z,15.20
2017-05-29T09:30:44.329Z,13.54
2017-05-29T09:33:13.149Z,12.42
2017-05-29T09:35:41.962Z,13.76
2017-05-29T09:38:10.791Z,14.94
2017-05-29T09:40:39.615Z,13.32
2017-05-29T09:43:08.451Z,9.12
2017-05-29T09:45:37.360Z,12.12
2017-05-29T09:48:06.160Z,12.78
2017-05-29T09:50:34.990Z,13.42
2017-05-29T09:53:03.816Z,12.88
2017-05-29T09:55:32.649Z,11.14
2017-05-29T09:58:01.465Z,12.80
2017-05-29T10:00:30.286Z,14.38
2017-05-29T10:02:59.125Z,12.18
2017-05-29T10:05:27.932Z,11.08
2017-05-29T10:07:56.760Z,11.02
2017-05-29T10:10:25.590Z,11.70
2017-05-29T10:12:54.415Z,12.72
2017-05-29T10:15:23.215Z,11.68
2017-05-29T10:17:52.071Z,11.24
2017-05-29T10:20:20.898Z,12.60
2017-05-29T10:22:49.724Z,12.20
2017-05-29T10:25:18.535Z,12.58
2017-05-29T10:27:47.392Z,11.98
2017-05-29T10:30:16.202Z,13.08
2017-05-29T10:32:45.024Z,11.24
2017-05-29T10:35:13.874Z,13.34
2017-05-29T10:37:42.714Z,11.62
2017-05-29T10:40:11.594Z,11.32
2017-05-29T10:42:40.403Z,11.38
2017-05-29T10:45:09.235Z,12.06
2017-05-29T10:47:38.066Z,10.70
2017-05-29T10:50:06.896Z,10.82
2017-05-29T10:52:35.730Z,11.76
2017-05-29T10:55:04.552Z,12.34
2017-05-29T10:57:33.379Z,11.78
2017-05-29T11:00:02.214Z,12.46
2017-05-29T11:02:31.122Z,10.80
2017-05-29T11:04:59.926Z,11.04
2017-05-29T11:07:28.784Z,11.76
2017-05-29T11:09:57.585Z,11.64
2017-05-29T11:12:26.417Z,10.70
2017-05-29T11:14:55.219Z,9.70
2017-05-29T11:17:24.047Z,11.56
2017-05-29T11:19:52.885Z,10.04
2017-05-29T11:22:21.692Z,10.62
2017-05-29T11:24:50.527Z,10.32
2017-05-29T11:27:19.347Z,11.28
2017-05-29T11:29:48.166Z,11.70
2017-05-29T11:32:16.981Z,10.88
2017-05-29T11:34:45.815Z,10.78
2017-05-29T11:37:15.582Z,10.68
2017-05-29T11:39:45.237Z,10.60
2017-05-29T11:42:14.046Z,11.12
2017-05-29T11:44:42.895Z,10.00
2017-05-29T11:47:11.700Z,9.84
2017-05-29T11:49:41.399Z,11.62
2017-05-29T11:52:10.314Z,9.78
2017-05-29T11:54:39.154Z,11.50
2017-05-29T11:57:07.994Z,9.62
2017-05-29T11:59:36.795Z,9.64
2017-05-29T12:02:05.627Z,11.26
2017-05-29T12:04:34.459Z,10.02
2017-05-29T12:07:03.272Z,9.30
2017-05-29T12:09:32.154Z,9.44
2017-05-29T12:12:01.006Z,10.28
2017-05-29T12:14:29.822Z,9.54
2017-05-29T12:16:58.650Z,11.00
2017-05-29T12:19:27.715Z,9.74
2017-05-29T12:21:56.511Z,9.60
2017-05-29T12:24:25.327Z,10.12
2017-05-29T12:26:54.163Z,11.18
2017-05-29T12:29:22.978Z,9.70
2017-05-29T12:31:51.795Z,9.56
2017-05-29T12:34:20.611Z,8.98
2017-05-29T12:36:49.440Z,8.22
2017-05-29T12:39:18.267Z,7.16
2017-05-29T12:41:47.075Z,9.50
2017-05-29T12:44:15.883Z,7.50
2017-05-29T12:46:44.733Z,6.16
2017-05-29T12:49:13.555Z,5.96
2017-05-29T12:51:42.352Z,6.40
2017-05-29T12:54:11.215Z,6.24
2017-05-29T12:56:40.335Z,5.20
2017-05-29T12:59:09.143Z,5.48
2017-05-29T13:01:38.081Z,5.96
2017-05-29T13:04:06.980Z,5.16
2017-05-29T13:06:35.776Z,5.38
2017-05-29T13:09:04.649Z,5.64
2017-05-29T13:11:33.452Z,5.88
2017-05-29T13:14:02.259Z,5.34
2017-05-29T13:16:31.094Z,5.76
2017-05-29T13:18:59.923Z,5.28
2017-05-29T13:21:28.787Z,5.32
2017-05-29T13:24:03.356Z,6.22
2017-05-29T13:26:32.185Z,5.92
2017-05-29T13:29:01.005Z,6.06
2017-05-29T13:31:29.819Z,6.22
2017-05-29T13:33:58.660Z,7.62
2017-05-29T13:36:33.043Z,7.08
2017-05-29T13:39:02.574Z,6.28
2017-05-29T13:41:32.215Z,6.54
2017-05-29T13:44:01.028Z,5.86
2017-05-29T13:46:29.855Z,5.48
2017-05-29T13:48:58.670Z,6.46
2017-05-29T13:51:27.518Z,5.08
2017-05-29T13:53:56.475Z,8.22
2017-05-29T13:56:25.313Z,9.00
2017-05-29T13:58:54.144Z,5.44
2017-05-29T14:01:22.939Z,5.68
2017-05-29T14:03:51.785Z,5.74
2017-05-29T14:06:20.647Z,5.88
2017-05-29T14:08:49.487Z,5.48
2017-05-29T14:11:18.304Z,5.88
2017-05-29T14:13:47.116Z,6.12
2017-05-29T14:16:15.955Z,6.18
2017-05-29T14:18:44.773Z,6.88
2017-05-29T14:21:13.580Z,7.10
2017-05-29T14:23:42.419Z,6.26
2017-05-29T14:26:11.236Z,5.52
2017-05-29T14:28:40.545Z,6.06
2017-05-29T14:31:09.375Z,6.40
2017-05-29T14:33:38.193Z,6.80
2017-05-29T14:36:06.996Z,5.92
2017-05-29T14:38:35.843Z,5.88
2017-05-29T14:41:04.673Z,6.00
2017-05-29T14:43:33.471Z,6.38
2017-05-29T14:46:02.308Z,5.92
2017-05-29T14:48:32.015Z,6.12
2017-05-29T14:51:00.849Z,5.98
2017-05-29T14:53:29.675Z,6.70
2017-05-29T14:55:58.480Z,6.14
2017-05-29T14:58:27.315Z,6.08
2017-05-29T15:00:56.146Z,6.62
2017-05-29T15:03:24.963Z,6.94
2017-05-29T15:05:53.796Z,6.96
2017-05-29T15:08:22.606Z,6.32
2017-05-29T15:10:51.431Z,6.28
2017-05-29T15:13:20.240Z,8.84
2017-05-29T15:15:50.043Z,6.72
2017-05-29T15:18:18.839Z,7.02
2017-05-29T15:20:47.688Z,5.88
2017-05-29T15:23:16.519Z,6.76
2017-05-29T15:25:45.335Z,6.30
2017-05-29T15:28:14.154Z,7.24
2017-05-29T15:30:43.108Z,7.28
2017-05-29T15:33:11.881Z,6.68
2017-05-29T15:35:40.698Z,7.08
2017-05-29T15:38:09.524Z,6.30
2017-05-29T15:40:38.343Z,9.58
2017-05-29T15:43:07.157Z,6.30
2017-05-29T15:45:36.004Z,5.90
2017-05-29T15:48:04.825Z,6.78
2017-05-29T15:50:33.629Z,5.96
2017-05-29T15:53:02.483Z,6.42
2017-05-29T15:55:31.285Z,5.74
2017-05-29T15:58:00.100Z,5.18
2017-05-29T16:00:28.939Z,5.42
2017-05-29T16:02:57.759Z,4.42
2017-05-29T16:05:26.598Z,7.04
2017-05-29T16:07:55.428Z,8.06
2017-05-29T16:10:24.244Z,6.02
2017-05-29T16:12:53.104Z,5.82
2017-05-29T16:15:21.922Z,5.86
2017-05-29T16:17:50.766Z,5.78
2017-05-29T16:20:19.574Z,5.66
2017-05-29T16:22:48.401Z,5.02
2017-05-29T16:25:17.235Z,6.62
2017-05-29T16:27:46.065Z,5.80
2017-05-29T16:30:14.876Z,6.12
2017-05-29T16:32:43.689Z,7.22
2017-05-29T16:35:12.506Z,4.64
2017-05-29T16:37:41.314Z,5.20
2017-05-29T16:40:10.136Z,6.04
2017-05-29T16:42:38.970Z,5.14
2017-05-29T16:45:08.108Z,6.32
2017-05-29T16:47:36.916Z,6.38
2017-05-29T16:50:05.723Z,5.22
2017-05-29T16:52:34.545Z,6.06
2017-05-29T16:55:03.376Z,5.30
2017-05-29T16:57:32.203Z,5.12
2017-05-29T17:00:01.006Z,5.12
2017-05-29T17:02:29.832Z,5.18
2017-05-29T17:04:58.645Z,6.02
2017-05-29T17:07:27.471Z,4.98
2017-05-29T17:09:56.283Z,4.78
2017-05-29T17:12:25.084Z,5.32
2017-05-29T17:14:53.900Z,5.04
2017-05-29T17:17:22.737Z,5.04
2017-05-29T17:19:51.563Z,5.66
2017-05-29T17:22:20.729Z,6.28
2017-05-29T17:24:49.508Z,5.72
2017-05-29T17:27:18.337Z,5.64
2017-05-29T17:29:47.170Z,8.62
2017-05-29T17:32:15.972Z,9.40
2017-05-29T17:34:44.808Z,6.76
2017-05-29T17:37:12.862Z,6.60
2017-05-29T17:39:41.669Z,6.00
2017-05-29T17:42:10.495Z,5.70
2017-05-29T17:44:39.329Z,6.08
2017-05-29T17:47:08.138Z,6.06
2017-05-29T17:49:36.980Z,6.04
2017-05-29T17:52:05.800Z,7.38
2017-05-29T17:54:34.621Z,6.06
2017-05-29T17:57:03.424Z,7.36
2017-05-29T17:59:32.272Z,6.54
2017-05-29T18:02:01.140Z,7.36
2017-05-29T18:04:29.949Z,6.60
2017-05-29T18:06:58.814Z,7.78
2017-05-29T18:09:27.700Z,10.08
2017-05-29T18:11:56.471Z,8.86
2017-05-29T18:14:25.278Z,8.50
2017-05-29T18:16:54.100Z,6.58
2017-05-29T18:19:23.537Z,8.40
2017-05-29T18:21:52.371Z,7.10
2017-05-29T18:24:21.180Z,7.50
2017-05-29T18:26:50.005Z,7.34
2017-05-29T18:29:18.902Z,6.76
2017-05-29T18:31:47.715Z,6.30
2017-05-29T18:34:16.524Z,8.00
2017-05-29T18:36:45.752Z,8.16
2017-05-29T18:39:14.519Z,7.12
2017-05-29T18:41:43.363Z,7.80
2017-05-29T18:44:12.192Z,8.96
2017-05-29T18:46:41.160Z,11.20
2017-05-29T18:49:09.995Z,8.46
2017-05-29T18:51:38.800Z,9.10
2017-05-29T18:54:07.640Z,8.98
2017-05-29T18:56:36.443Z,9.88
2017-05-29T18:59:05.291Z,8.02
2017-05-29T19:01:34.139Z,8.48
2017-05-29T19:04:02.963Z,8.36
2017-05-29T19:06:31.803Z,9.48
2017-05-29T19:09:00.633Z,9.56
2017-05-29T19:11:29.464Z,8.82
2017-05-29T19:13:58.283Z,8.50
2017-05-29T19:16:27.101Z,8.40
2017-05-29T19:18:55.907Z,8.98
2017-05-29T19:21:24.730Z,7.78
2017-05-29T19:23:53.579Z,8.64
2017-05-29T19:26:22.445Z,9.34
2017-05-29T19:28:51.322Z,14.58
2017-05-29T19:31:20.157Z,9.88
2017-05-29T19:33:48.979Z,10.62
2017-05-29T19:36:17.825Z,9.86
2017-05-29T19:38:46.699Z,9.94
2017-05-29T19:41:15.516Z,9.46
2017-05-29T19:43:44.346Z,8.42
2017-05-29T19:46:13.161Z,9.46
2017-05-29T19:48:42.715Z,8.62
2017-05-29T19:51:11.546Z,9.98
2017-05-29T19:53:40.360Z,8.94
2017-05-29T19:56:09.236Z,18.26
2017-05-29T19:58:38.052Z,9.22
2017-05-29T20:01:06.894Z,13.36
2017-05-29T20:03:35.727Z,10.28
2017-05-29T20:06:04.567Z,9.36
2017-05-29T20:08:33.393Z,8.74
2017-05-29T20:11:02.243Z,8.80
2017-05-29T20:13:31.061Z,8.76
2017-05-29T20:15:59.914Z,9.50
2017-05-29T20:18:28.718Z,10.10
2017-05-29T20:20:57.743Z,9.50
2017-05-29T20:23:26.579Z,11.02
2017-05-29T20:25:55.407Z,10.46
2017-05-29T20:28:24.512Z,11.86
2017-05-29T20:43:53.352Z,10.88
2017-05-29T20:46:22.217Z,10.88
2017-05-29T20:48:51.062Z,11.94
2017-05-29T20:51:19.899Z,10.34
2017-05-29T20:53:48.735Z,11.90
2017-05-29T20:56:17.588Z,11.16
2017-05-29T20:58:46.441Z,11.36
2017-05-29T21:01:15.243Z,11.16
2017-05-29T21:03:44.068Z,11.96
2017-05-29T21:06:12.947Z,13.26
2017-05-29T21:08:41.750Z,12.68
2017-05-29T21:11:10.574Z,12.40
2017-05-29T21:13:39.396Z,13.10
2017-05-29T21:16:08.225Z,12.04
2017-05-29T21:18:37.063Z,11.88
2017-05-29T21:21:05.876Z,12.80
2017-05-29T21:23:35.237Z,12.92
2017-05-29T21:26:04.795Z,13.06
2017-05-29T21:28:33.602Z,13.00
2017-05-29T21:31:02.434Z,12.72
2017-05-29T21:33:31.255Z,14.06
2017-05-29T21:36:00.907Z,11.02
2017-05-29T21:38:29.742Z,12.74
2017-05-29T21:40:58.568Z,12.04
2017-05-29T21:43:27.415Z,12.66
2017-05-29T21:45:56.212Z,12.52
2017-05-29T21:48:25.057Z,13.08
2017-05-29T21:50:53.876Z,12.60
2017-05-29T21:53:22.713Z,14.54
2017-05-29T21:55:51.532Z,13.44
2017-05-29T21:58:20.355Z,14.86
2017-05-29T22:00:49.206Z,14.58
2017-05-29T22:03:18.051Z,14.36
2017-05-29T22:05:46.884Z,14.62
2017-05-29T22:08:15.702Z,14.64
2017-05-29T22:10:44.574Z,14.26
2017-05-29T22:13:13.391Z,16.14
2017-05-29T22:15:42.217Z,16.82
2017-05-29T22:18:11.065Z,14.70
2017-05-29T22:20:39.862Z,15.14
2017-05-29T22:23:08.703Z,15.80
2017-05-29T22:25:37.524Z,16.22
2017-05-29T22:28:06.345Z,13.84
2017-05-29T22:30:35.177Z,14.68
2017-05-29T22:33:04.011Z,16.82
2017-05-29T22:35:32.823Z,15.96
2017-05-29T22:38:01.653Z,16.66
2017-05-29T22:40:30.464Z,16.74
2017-05-29T22:42:59.272Z,17.34
2017-05-29T22:45:28.104Z,15.74
2017-05-29T22:47:56.931Z,15.74
2017-05-29T22:50:25.772Z,16.22
2017-05-29T22:52:54.592Z,16.46
2017-05-29T22:55:23.435Z,16.56
2017-05-29T22:57:52.259Z,18.02
2017-05-29T23:00:21.092Z,22.16
2017-05-29T23:02:49.924Z,18.62
2017-05-29T23:05:18.753Z,18.34
2017-05-29T23:07:47.563Z,18.56
2017-05-29T23:10:16.450Z,18.70
2017-05-29T23:12:45.262Z,18.06
2017-05-29T23:15:14.087Z,19.84
2017-05-29T23:17:42.917Z,19.16
2017-05-29T23:20:11.806Z,19.68
2017-05-29T23:22:40.615Z,18.48
2017-05-29T23:25:09.456Z,20.24
2017-05-29T23:27:38.284Z,19.32
2017-05-29T23:30:07.131Z,19.38
2017-05-29T23:32:35.946Z,20.02
2017-05-29T23:35:04.767Z,19.32
2017-05-29T23:37:33.599Z,22.14
2017-05-29T23:40:02.415Z,24.02
2017-05-29T23:42:31.275Z,22.80
2017-05-29T23:45:00.092Z,22.46
2017-05-29T23:47:28.903Z,23.08
2017-05-29T23:49:57.739Z,22.52
2017-05-29T23:52:26.567Z,23.54
2017-05-29T23:54:55.395Z,23.90
2017-05-29T23:57:24.215Z,25.16
2017-05-29T23:59:53.044Z,25.56
